Time;durP1;ratioP1;P1;durP2;ratioP2;P2;SDS_P1;SDS_P2;PMS_P1;PMS_P2;Temp;Humidity;BMP_temperature;BMP_pressure;BME280_temperature;BME280_humidity;BME280_pressure;Samples;Min_cycle;Max_cycle;Signal;HPM_P1;HPM_P2
2022/11/01 00:07:35;;;;;;;3.97;2.37;;;;;;;;;;20648901;28;20223;-82
2022/11/01 00:17:39;;;;;;;3.90;2.27;;;;;;;;;;20668981;28;20289;-82
2022/11/01 00:27:41;;;;;;;3.77;2.57;;;;;;;;;;20648141;28;20290;-82
2022/11/01 00:37:43;;;;;;;4.33;2.70;;;;;;;;;;20647641;28;20223;-80
2022/11/01 00:47:47;;;;;;;3.13;2.00;;;13.90;99.90;;;;;;20664323;28;20282;-82
2022/11/01 00:57:49;;;;;;;3.17;2.10;;;;;;;;;;20678460;28;20576;-80
2022/11/01 01:07:51;;;;;;;5.17;2.00;;;;;;;;;;20629906;28;20278;-80
2022/11/01 01:17:53;;;;;;;3.70;2.40;;;;;;;;;;20645132;28;20231;-80
2022/11/01 01:27:55;;;;;;;6.27;3.43;;;;;;;;;;20661315;28;20282;-80
2022/11/01 01:37:57;;;;;;;6.30;3.20;;;;;;;;;;20629563;28;20270;-81
2022/11/01 01:48:06;;;;;;;4.30;2.50;;;;;;;;;;20659545;28;20239;-82
2022/11/01 01:58:10;;;;;;;6.80;2.80;;;13.90;99.90;;;;;;20695416;28;20559;-82
2022/11/01 02:08:14;;;;;;;4.40;2.80;;;14.00;99.90;;;;;;20675634;28;20224;-81
2022/11/01 02:18:37;;;;;;;3.03;2.20;;;;;;;;;;20640983;28;20235;-81
2022/11/01 02:28:48;;;;;;;3.33;1.90;;;;;;;;;;20649795;28;20710;-81
2022/11/01 02:38:58;;;;;;;3.80;2.40;;;;;;;;;;20592530;28;20760;-79
2022/11/01 02:49:01;;;;;;;6.00;2.63;;;;;;;;;;20591659;28;20232;-80
2022/11/01 02:59:02;;;;;;;2.90;2.07;;;14.00;99.90;;;;;;20590280;28;20263;-81
2022/11/01 03:09:08;;;;;;;4.43;2.30;;;13.80;99.90;;;;;;20604534;28;20237;-82
2022/11/01 03:19:38;;;;;;;3.53;2.10;;;13.90;99.90;;;;;;20571839;28;20272;-80
2022/11/01 03:29:43;;;;;;;4.77;1.97;;;;;;;;;;20587611;28;20296;-80
2022/11/01 03:39:49;;;;;;;6.67;2.70;;;13.90;99.90;;;;;;20605370;28;20220;-81
2022/11/01 03:50:12;;;;;;;5.77;2.27;;;13.90;99.90;;;;;;20586068;28;20229;-79
2022/11/01 04:00:15;;;;;;;4.33;2.90;;;13.90;99.90;;;;;;20587387;28;20271;-79
2022/11/01 04:10:18;;;;;;;4.07;2.23;;;;;;;;;;20585435;28;20283;-80
2022/11/01 04:20:31;;;;;;;6.07;2.00;;;;;;;;;;20606351;28;20287;-79
2022/11/01 04:30:33;;;;;;;4.67;2.50;;;;;;;;;;20583602;28;20228;-80
2022/11/01 04:40:35;;;;;;;5.07;2.63;;;;;;;;;;20567191;28;20278;-80
2022/11/01 04:50:37;;;;;;;4.80;2.70;;;;;;;;;;20582005;28;20233;-80
2022/11/01 05:00:41;;;;;;;5.57;2.60;;;;;;;;;;20567740;28;20220;-82
2022/11/01 05:10:44;;;;;;;4.07;2.30;;;;;;;;;;20554016;28;20224;-81
2022/11/01 05:20:45;;;;;;;6.07;2.53;;;;;;;;;;20548606;28;20232;-81
2022/11/01 05:30:47;;;;;;;4.10;2.30;;;;;;;;;;20576005;28;20268;-81
2022/11/01 05:40:49;;;;;;;3.30;2.00;;;;;;;;;;20612979;28;20628;-81
2022/11/01 05:50:51;;;;;;;5.57;2.37;;;;;;;;;;20564128;28;20251;-81
2022/11/01 06:00:59;;;;;;;5.27;2.30;;;;;;;;;;20594760;28;20209;-82
2022/11/01 06:11:05;;;;;;;4.47;1.90;;;;;;;;;;20594396;28;20295;-82
2022/11/01 06:21:07;;;;;;;10.73;1.73;;;;;;;;;;20576621;28;20236;-82
2022/11/01 06:31:08;;;;;;;2.53;1.33;;;;;;;;;;20577855;28;20213;-83
2022/11/01 06:41:10;;;;;;;1.93;1.33;;;;;;;;;;20600665;28;20215;-82
2022/11/01 06:51:12;;;;;;;2.60;1.50;;;;;;;;;;20663143;28;20235;-81
2022/11/01 07:01:17;;;;;;;2.07;1.20;;;;;;;;;;20663774;28;20212;-83
2022/11/01 07:11:19;;;;;;;2.33;1.23;;;;;;;;;;20685858;28;20305;-82
2022/11/01 07:21:21;;;;;;;1.63;1.20;;;;;;;;;;20654674;28;20262;-83
2022/11/01 07:31:24;;;;;;;1.80;1.23;;;;;;;;;;20638175;28;20767;-82
2022/11/01 07:41:26;;;;;;;1.60;0.90;;;14.30;99.90;;;;;;20634543;28;20278;-82
2022/11/01 07:51:28;;;;;;;3.60;1.33;;;;;;;;;;20651379;28;20224;-83
2022/11/01 08:01:30;;;;;;;1.97;1.00;;;;;;;;;;20635041;28;20216;-83
2022/11/01 08:11:32;;;;;;;2.63;0.97;;;;;;;;;;20650297;28;20231;-83
2022/11/01 08:21:33;;;;;;;2.47;1.00;;;;;;;;;;20634222;28;20654;-82
2022/11/01 08:31:39;;;;;;;2.07;1.03;;;14.70;99.90;;;;;;20676654;28;20239;-83
2022/11/01 08:41:42;;;;;;;3.13;1.30;;;;;;;;;;20650420;28;20282;-82
2022/11/01 08:51:44;;;;;;;1.93;0.87;;;;;;;;;;20631396;28;20231;-82
2022/11/01 09:01:46;;;;;;;2.13;0.97;;;;;;;;;;20627604;28;20235;-82
2022/11/01 09:11:47;;;;;;;0.93;0.53;;;;;;;;;;20646073;28;20227;-82
2022/11/01 09:21:49;;;;;;;4.10;3.20;;;;;;;;;;20630543;28;20371;-82
2022/11/01 09:31:52;;;;;;;6.87;3.67;;;15.40;99.90;;;;;;20630381;28;20624;-83
2022/11/01 09:41:59;;;;;;;2.33;1.80;;;;;;;;;;20638093;28;20682;-82
2022/11/01 09:52:05;;;;;;;2.57;1.20;;;;;;;;;;20675776;28;20248;-81
2022/11/01 10:02:11;;;;;;;3.90;0.70;;;;;;;;;;20891846;22;20675;-72
2022/11/01 10:12:21;;;;;;;1.60;0.53;;;;;;;;;;20815531;28;20485;-72
2022/11/01 10:22:34;;;;;;;1.27;0.40;;;;;;;;;;20722652;28;20299;-72
2022/11/01 10:32:51;;;;;;;2.30;0.40;;;15.80;99.90;;;;;;20804301;28;20226;-72
2022/11/01 10:42:53;;;;;;;0.87;0.40;;;;;;;;;;20826549;28;20206;-72
2022/11/01 10:52:55;;;;;;;1.70;0.40;;;;;;;;;;20841411;28;20234;-72
2022/11/01 11:02:57;;;;;;;1.57;0.57;;;;;;;;;;20825264;28;20210;-71
2022/11/01 11:13:02;;;;;;;0.97;0.40;;;;;;;;;;20847582;28;20226;-68
2022/11/01 11:23:09;;;;;;;2.60;0.60;;;17.30;99.90;;;;;;20849790;28;20602;-70
2022/11/01 11:33:16;;;;;;;0.73;0.30;;;17.30;99.90;;;;;;20833890;28;20594;-72
2022/11/01 11:43:20;;;;;;;2.30;0.47;;;;;;;;;;20816909;28;20264;-75
2022/11/01 11:53:23;;;;;;;1.30;0.43;;;;;;;;;;20820180;28;20244;-73
2022/11/01 12:03:24;;;;;;;0.83;0.40;;;17.70;99.90;;;;;;20820778;28;20211;-75
2022/11/01 12:13:33;;;;;;;2.20;1.03;;;17.70;99.90;;;;;;20811290;28;20747;-73
2022/11/01 12:23:37;;;;;;;0.50;0.30;;;;;;;;;;20844700;23;20222;-66
2022/11/01 12:33:43;;;;;;;0.37;0.20;;;;;;;;;;20726380;28;20230;-69
2022/11/01 12:43:57;;;;;;;1.23;0.60;;;18.20;99.90;;;;;;20714235;28;20293;-69
2022/11/01 12:54:19;;;;;;;0.73;0.40;;;18.20;99.90;;;;;;20721539;28;20214;-71
2022/11/01 13:04:21;;;;;;;1.30;0.27;;;;;;;;;;20731897;28;20223;-69
2022/11/01 13:14:23;;;;;;;1.17;0.50;;;;;;;;;;20695060;28;20215;-69
2022/11/01 13:24:44;;;;;;;3.83;0.60;;;;;;;;;;20704723;28;20219;-66
2022/11/01 13:35:04;;;;;;;0.67;0.30;;;18.10;99.90;;;;;;20696019;28;20226;-67
2022/11/01 13:45:06;;;;;;;1.27;0.50;;;;;;;;;;20688765;28;20246;-66
2022/11/01 13:55:25;;;;;;;0.80;0.30;;;17.50;99.90;;;;;;20703403;28;20281;-66
2022/11/01 14:05:37;;;;;;;2.33;0.63;;;17.30;99.90;;;;;;20720158;28;20195;-67
2022/11/01 14:15:54;;;;;;;2.23;0.50;;;17.10;99.90;;;;;;20720197;28;20218;-66
2022/11/01 14:26:25;;;;;;;2.43;0.50;;;;;;;;;;20716743;28;20254;-66
2022/11/01 14:36:30;;;;;;;2.00;0.60;;;;;;;;;;20700252;28;20223;-67
2022/11/01 14:46:34;;;;;;;1.40;0.50;;;;;;;;;;20715782;28;20231;-66
2022/11/01 14:56:36;;;;;;;3.90;0.80;;;;;;;;;;20714903;28;20771;-66
2022/11/01 15:06:42;;;;;;;1.67;0.40;;;16.50;99.90;;;;;;20704854;28;20625;-67
2022/11/01 15:16:44;;;;;;;1.10;0.40;;;;;;;;;;20769653;28;20311;-67
2022/11/01 15:26:46;;;;;;;1.40;0.60;;;;;;;;;;20658571;28;20222;-67
2022/11/01 15:36:48;;;;;;;2.27;0.80;;;17.10;99.90;;;;;;20692117;28;20277;-67
2022/11/01 15:46:51;;;;;;;1.40;0.53;;;;;;;;;;20703029;28;20215;-66
2022/11/01 15:56:56;;;;;;;1.13;0.40;;;;;;;;;;20682897;28;20618;-67
2022/11/01 16:07:03;;;;;;;1.23;0.50;;;16.00;99.90;;;;;;20710190;28;20207;-67
2022/11/01 16:17:33;;;;;;;1.20;0.50;;;15.70;99.90;;;;;;20729090;28;20285;-69
2022/11/01 16:27:50;;;;;;;0.60;0.40;;;;;;;;;;20711050;28;20291;-69
2022/11/01 16:37:52;;;;;;;0.57;0.50;;;;;;;;;;20707782;28;20899;-69
2022/11/01 16:47:54;;;;;;;1.97;0.77;;;;;;;;;;20700244;28;20223;-69
2022/11/01 16:57:56;;;;;;;1.30;0.50;;;;;;;;;;20703381;28;20280;-69
2022/11/01 17:07:58;;;;;;;2.77;1.10;;;;;;;;;;20702710;28;20285;-69
2022/11/01 17:18:11;;;;;;;1.40;0.90;;;15.20;99.90;;;;;;20668679;28;20746;-69
2022/11/01 17:28:13;;;;;;;2.93;0.93;;;;;;;;;;20700379;28;20768;-69
2022/11/01 17:38:33;;;;;;;2.77;1.30;;;15.10;99.90;;;;;;20686004;28;20639;-69
2022/11/01 17:48:35;;;;;;;4.60;1.30;;;;;;;;;;20676036;28;20288;-69
2022/11/01 17:58:38;;;;;;;3.87;2.10;;;;;;;;;;20677493;28;20611;-69
2022/11/01 18:08:45;;;;;;;4.97;2.60;;;14.80;99.90;;;;;;20671272;28;20709;-68
2022/11/01 18:18:54;;;;;;;2.60;1.17;;;;;;;;;;20739054;23;20287;-69
2022/11/01 18:29:08;;;;;;;1.07;0.63;;;14.70;99.90;;;;;;21031627;28;20258;-69
2022/11/01 18:39:26;;;;;;;2.23;0.60;;;14.70;99.90;;;;;;20987259;28;20209;-70
2022/11/01 18:49:29;;;;;;;3.63;1.60;;;;;;;;;;21005852;28;20305;-70
2022/11/01 18:59:34;;;;;;;7.20;2.17;;;14.40;99.90;;;;;;21049515;28;20329;-70
2022/11/01 19:09:38;;;;;;;2.63;0.97;;;14.40;99.90;;;;;;21070136;28;20266;-70
2022/11/01 19:19:41;;;;;;;3.27;0.93;;;14.30;99.90;;;;;;21050979;28;20236;-70
2022/11/01 19:29:43;;;;;;;1.73;1.00;;;;;;;;;;21068825;28;20216;-69
2022/11/01 19:39:44;;;;;;;3.10;1.80;;;14.00;99.90;;;;;;21070143;28;20529;-70
2022/11/01 19:49:47;;;;;;;4.30;2.33;;;;;;;;;;21066643;28;20254;-70
2022/11/01 19:59:49;;;;;;;2.37;1.37;;;;;;;;;;20981259;28;20251;-70
2022/11/01 20:09:50;;;;;;;1.67;0.80;;;;;;;;;;20999940;28;20789;-70
2022/11/01 20:19:52;;;;;;;1.03;0.60;;;;;;;;;;20985428;28;20475;-70
2022/11/01 20:29:54;;;;;;;2.63;0.83;;;;;;;;;;20964837;28;20228;-70
2022/11/01 20:39:56;;;;;;;2.17;0.80;;;;;;;;;;20981831;28;20227;-70
2022/11/01 20:50:01;;;;;;;1.27;0.67;;;13.50;99.90;;;;;;20982317;28;20684;-70
2022/11/01 21:00:04;;;;;;;1.17;0.60;;;13.50;99.90;;;;;;20948937;28;20201;-70
2022/11/01 21:10:27;;;;;;;2.77;0.97;;;13.50;99.90;;;;;;20982563;28;20243;-70
2022/11/01 21:20:29;;;;;;;0.97;0.70;;;;;;;;;;20961187;28;20794;-70
2022/11/01 21:30:31;;;;;;;1.73;0.50;;;;;;;;;;20980012;28;20216;-70
2022/11/01 21:40:33;;;;;;;1.93;0.80;;;;;;;;;;20976692;28;20700;-70
2022/11/01 21:50:34;;;;;;;0.77;0.57;;;;;;;;;;21050036;28;20225;-70
2022/11/01 22:00:36;;;;;;;1.53;0.67;;;;;;;;;;21070762;28;20618;-70
2022/11/01 22:10:38;;;;;;;2.00;0.83;;;;;;;;;;21039637;28;20281;-70
2022/11/01 22:20:40;;;;;;;1.20;0.60;;;;;;;;;;21073159;28;20224;-69
2022/11/01 22:30:41;;;;;;;4.43;0.83;;;;;;;;;;21080620;28;20483;-70
2022/11/01 22:40:53;;;;;;;2.33;0.63;;;12.50;99.90;;;;;;21079890;28;20278;-69
2022/11/01 22:50:55;;;;;;;0.93;0.70;;;;;;;;;;21078375;28;20613;-70
2022/11/01 23:00:59;;;;;;;2.47;0.87;;;12.40;99.90;;;;;;21077616;28;20279;-69
2022/11/01 23:11:01;;;;;;;2.13;0.83;;;;;;;;;;21074162;28;20596;-70
2022/11/01 23:21:07;;;;;;;1.73;0.50;;;;;;;;;;21076531;28;20629;-70
2022/11/01 23:31:09;;;;;;;2.03;0.50;;;;;;;;;;21076114;28;20266;-69
2022/11/01 23:41:20;;;;;;;2.40;0.80;;;;;;;;;;21074719;28;20208;-69
2022/11/01 23:51:22;;;;;;;3.33;0.50;;;;;;;;;;21053805;28;20696;-69
